»·PEaware :: N3891R KSNA-KCRQ

N3891R :: KSNA-KCRQ

FLIGHT INFORMATION

Flight Status: Arrived
Operator: Privately registered:
United States
More flights under this callsign
Pilot: Markus B. (22479)
Aircraft: CESSNA 172 SKYHAWK
(C172)
More flights by this aircraft type
Origin: KSNA John Wayne-Orange Co
United States
Destination: KCRQ McClellan-Palomar
United States
More flights between these airports :: More routes between these airports
Route: +V23 OCN
File this flight plan on PilotEdge
Remarks:
Altitude:
(Current/Filed)
5,000ft
Speed:
(Current/Filed)
120kts
Departed: 28-Dec-18 02:21 PM
Arrived: 28-Dec-18 03:03 PM
Distance/Time
Traveled:
1nm/0:42
Distance/Time
To Go:
Arrived

Flight Plot

Page will automatically refresh every two minutes.


Map Options




Map Legend


Flown Route
Filed Route
Departure Airport
Arrival Airport
Navaid (VOR, NDB)
Fix

Horizontal Profiles

Position Reports

Time Latitude Longitude Heading Altitude Ground
Speed
28-Dec-18 13:52 33.682129 -117.860463 117 60ft 0kts
28-Dec-18 13:53 33.682129 -117.860463 117 60ft 0kts
28-Dec-18 13:54 33.682129 -117.860463 117 60ft 0kts
28-Dec-18 13:55 33.682129 -117.860462 117 60ft 0kts
28-Dec-18 13:56 33.680252 -117.863175 21 60ft 6kts
28-Dec-18 13:57 33.679946 -117.862807 218 60ft 15kts
28-Dec-18 13:58 33.676470 -117.865589 208 60ft 16kts
28-Dec-18 13:59 33.673522 -117.866984 165 60ft 13kts
28-Dec-18 14:00 33.672493 -117.867076 202 60ft 0kts
28-Dec-18 14:01 33.672493 -117.867076 202 60ft 0kts
28-Dec-18 14:02 33.672493 -117.867076 202 60ft 0kts
28-Dec-18 14:03 33.672493 -117.867076 202 60ft 0kts
28-Dec-18 14:04 33.672493 -117.867076 202 60ft 0kts
28-Dec-18 14:05 33.672493 -117.867076 202 60ft 0kts
28-Dec-18 14:06 33.672493 -117.867076 202 60ft 0kts
28-Dec-18 14:07 33.672493 -117.867076 202 60ft 0kts
28-Dec-18 14:08 33.672493 -117.867076 202 60ft 0kts
28-Dec-18 14:09 33.672493 -117.867076 202 60ft 0kts
28-Dec-18 14:10 33.672493 -117.867076 202 60ft 0kts
28-Dec-18 14:11 33.672286 -117.867619 267 60ft 13kts
28-Dec-18 14:12 33.669044 -117.870957 220 60ft 0kts
28-Dec-18 14:13 33.667540 -117.872803 268 60ft 0kts
28-Dec-18 14:14 33.667540 -117.872803 268 60ft 0kts
28-Dec-18 14:15 33.667540 -117.872803 268 60ft 0kts
28-Dec-18 14:16 33.667540 -117.872803 268 60ft 0kts
28-Dec-18 14:17 33.667540 -117.872803 268 60ft 0kts
28-Dec-18 14:18 33.667540 -117.872803 268 60ft 0kts
28-Dec-18 14:19 33.667540 -117.872803 268 60ft 0kts
28-Dec-18 14:20 33.676666 -117.867938 30 330ft 79kts
28-Dec-18 14:21 33.683495 -117.879974 251 1312ft 77kts
28-Dec-18 14:22 33.676124 -117.909440 253 1855ft 104kts
28-Dec-18 14:23 33.666939 -117.947682 253 1947ft 128kts
28-Dec-18 14:24 33.656986 -117.988573 245 2178ft 116kts
28-Dec-18 14:25 33.638831 -117.971542 121 2974ft 98kts
28-Dec-18 14:26 33.625486 -117.945575 121 3864ft 86kts
28-Dec-18 14:27 33.613514 -117.922213 121 4690ft 81kts
28-Dec-18 14:28 33.599472 -117.895039 121 4975ft 118kts
28-Dec-18 14:29 33.580852 -117.859503 122 4945ft 127kts
28-Dec-18 14:30 33.563878 -117.827275 122 4938ft 109kts
28-Dec-18 14:31 33.547854 -117.796875 122 4937ft 107kts
28-Dec-18 14:32 33.531985 -117.766738 122 4937ft 106kts
28-Dec-18 14:33 33.514089 -117.738642 135 4936ft 106kts
28-Dec-18 14:34 33.492877 -117.713751 135 4936ft 106kts
28-Dec-18 14:35 33.471730 -117.688980 135 4936ft 106kts
28-Dec-18 14:36 33.450484 -117.664111 135 4936ft 106kts
28-Dec-18 14:37 33.429233 -117.639256 135 4936ft 106kts
28-Dec-18 14:38 33.408058 -117.614505 135 4936ft 106kts
28-Dec-18 14:39 33.386840 -117.589746 135 4936ft 107kts
28-Dec-18 14:40 33.365428 -117.565443 137 4937ft 106kts
28-Dec-18 14:41 33.344395 -117.540357 135 4936ft 106kts
28-Dec-18 14:42 33.323234 -117.515586 135 4936ft 107kts
28-Dec-18 14:43 33.302002 -117.490842 135 4936ft 106kts
28-Dec-18 14:44 33.280664 -117.466037 135 4936ft 107kts
28-Dec-18 14:45 33.259373 -117.441261 135 4936ft 106kts
28-Dec-18 14:46 33.238291 -117.416609 131 4935ft 106kts
28-Dec-18 14:47 33.232787 -117.378997 99 4517ft 124kts
28-Dec-18 14:48 33.227088 -117.338774 99 4244ft 111kts
28-Dec-18 14:49 33.222908 -117.305960 98 4430ft 103kts
28-Dec-18 14:50 33.218857 -117.271482 98 4431ft 106kts
28-Dec-18 14:51 33.215099 -117.236323 97 4431ft 107kts
28-Dec-18 14:52 33.211557 -117.200989 97 4431ft 107kts
28-Dec-18 14:53 33.207976 -117.165571 97 4431ft 107kts
28-Dec-18 14:54 33.204361 -117.130131 97 4431ft 107kts
28-Dec-18 14:55 33.200703 -117.094664 97 4431ft 107kts
28-Dec-18 14:56 33.186117 -117.070298 193 4193ft 122kts
28-Dec-18 14:57 33.157374 -117.091367 267 3374ft 143kts
28-Dec-18 14:58 33.153162 -117.134736 254 2910ft 124kts
28-Dec-18 14:59 33.145510 -117.178029 260 1778ft 151kts
28-Dec-18 15:00 33.138394 -117.224114 266 930ft 125kts
28-Dec-18 15:01 33.131013 -117.262955 262 523ft 112kts
28-Dec-18 15:02 33.127373 -117.285650 258 335ft 28kts
28-Dec-18 15:03 33.126334 -117.286599 81 335ft 8kts
28-Dec-18 15:04 33.127045 -117.282412 76 335ft 17kts
28-Dec-18 15:05 33.127056 -117.280491 82 335ft 0kts
28-Dec-18 15:06 33.682129 -117.860463 117 60ft 0kts
28-Dec-18 15:07 33.682129 -117.860463 117 60ft 0kts
28-Dec-18 15:08 33.682129 -117.860463 117 60ft 0kts
28-Dec-18 15:09 33.682166 -117.860440 302 60ft 0kts
28-Dec-18 15:11 33.682166 -117.860440 302 60ft 0kts
28-Dec-18 15:12 33.682166 -117.860440 302 60ft 0kts
28-Dec-18 15:13 33.682166 -117.860440 302 60ft 0kts

Navigation Log

Ident Type
Flight plan parsing failed, navigation log unavailable